sensor_id;sensor_type;location;lat;lon;timestamp;P1;durP1;ratioP1;P2;durP2;ratioP2
62832;SDS011;48891;49.220;6.920;2024-01-16T00:00:13;13.40;;;9.30;;
62832;SDS011;48891;49.220;6.920;2024-01-16T00:02:38;12.65;;;8.82;;
62832;SDS011;48891;49.220;6.920;2024-01-16T00:05:04;13.85;;;8.98;;
62832;SDS011;48891;49.220;6.920;2024-01-16T00:07:29;10.98;;;8.05;;
62832;SDS011;48891;49.220;6.920;2024-01-16T00:09:55;11.68;;;9.20;;
62832;SDS011;48891;49.220;6.920;2024-01-16T00:12:20;13.80;;;9.20;;
62832;SDS011;48891;49.220;6.920;2024-01-16T00:14:45;14.38;;;9.40;;
62832;SDS011;48891;49.220;6.920;2024-01-16T00:17:11;12.68;;;8.65;;
62832;SDS011;48891;49.220;6.920;2024-01-16T00:19:36;12.85;;;9.00;;
62832;SDS011;48891;49.220;6.920;2024-01-16T00:22:01;13.30;;;8.90;;
62832;SDS011;48891;49.220;6.920;2024-01-16T00:24:27;12.18;;;8.68;;
62832;SDS011;48891;49.220;6.920;2024-01-16T00:26:52;12.63;;;8.98;;
62832;SDS011;48891;49.220;6.920;2024-01-16T00:29:17;12.15;;;8.95;;
62832;SDS011;48891;49.220;6.920;2024-01-16T00:31:42;12.35;;;9.13;;
62832;SDS011;48891;49.220;6.920;2024-01-16T00:34:07;11.48;;;8.63;;
62832;SDS011;48891;49.220;6.920;2024-01-16T00:36:33;11.38;;;8.27;;
62832;SDS011;48891;49.220;6.920;2024-01-16T00:38:58;13.05;;;9.10;;
62832;SDS011;48891;49.220;6.920;2024-01-16T00:41:23;11.30;;;8.55;;
62832;SDS011;48891;49.220;6.920;2024-01-16T00:43:49;13.32;;;9.20;;
62832;SDS011;48891;49.220;6.920;2024-01-16T00:46:14;12.00;;;8.70;;
62832;SDS011;48891;49.220;6.920;2024-01-16T00:48:39;12.25;;;9.07;;
62832;SDS011;48891;49.220;6.920;2024-01-16T00:51:05;13.68;;;9.13;;
62832;SDS011;48891;49.220;6.920;2024-01-16T00:53:30;12.57;;;8.98;;
62832;SDS011;48891;49.220;6.920;2024-01-16T00:55:55;13.10;;;9.20;;
62832;SDS011;48891;49.220;6.920;2024-01-16T00:58:23;15.20;;;9.32;;
62832;SDS011;48891;49.220;6.920;2024-01-16T01:00:49;12.93;;;8.90;;
62832;SDS011;48891;49.220;6.920;2024-01-16T01:03:14;12.27;;;8.77;;
62832;SDS011;48891;49.220;6.920;2024-01-16T01:05:40;13.10;;;9.20;;
62832;SDS011;48891;49.220;6.920;2024-01-16T01:08:05;14.20;;;9.55;;
62832;SDS011;48891;49.220;6.920;2024-01-16T01:10:31;13.13;;;9.10;;
62832;SDS011;48891;49.220;6.920;2024-01-16T01:12:56;12.73;;;8.60;;
62832;SDS011;48891;49.220;6.920;2024-01-16T01:15:21;13.02;;;8.70;;
62832;SDS011;48891;49.220;6.920;2024-01-16T01:17:50;13.10;;;9.20;;
62832;SDS011;48891;49.220;6.920;2024-01-16T01:20:15;11.70;;;8.50;;
62832;SDS011;48891;49.220;6.920;2024-01-16T01:22:43;13.10;;;9.25;;
62832;SDS011;48891;49.220;6.920;2024-01-16T01:25:08;11.65;;;8.85;;
62832;SDS011;48891;49.220;6.920;2024-01-16T01:27:34;10.98;;;8.07;;
62832;SDS011;48891;49.220;6.920;2024-01-16T01:29:59;12.18;;;8.32;;
62832;SDS011;48891;49.220;6.920;2024-01-16T01:32:24;12.70;;;8.77;;
62832;SDS011;48891;49.220;6.920;2024-01-16T01:34:50;14.02;;;9.15;;
62832;SDS011;48891;49.220;6.920;2024-01-16T01:37:15;12.98;;;9.15;;
62832;SDS011;48891;49.220;6.920;2024-01-16T01:39:40;11.30;;;8.52;;
62832;SDS011;48891;49.220;6.920;2024-01-16T01:42:05;10.43;;;8.32;;
62832;SDS011;48891;49.220;6.920;2024-01-16T01:44:31;12.52;;;8.25;;
62832;SDS011;48891;49.220;6.920;2024-01-16T01:46:56;11.13;;;8.20;;
62832;SDS011;48891;49.220;6.920;2024-01-16T01:49:22;11.18;;;8.63;;
62832;SDS011;48891;49.220;6.920;2024-01-16T01:51:48;12.57;;;8.00;;
62832;SDS011;48891;49.220;6.920;2024-01-16T01:54:14;12.50;;;8.60;;
62832;SDS011;48891;49.220;6.920;2024-01-16T01:56:41;11.77;;;8.40;;
62832;SDS011;48891;49.220;6.920;2024-01-16T01:59:09;11.88;;;8.55;;
62832;SDS011;48891;49.220;6.920;2024-01-16T02:01:34;12.82;;;8.82;;
62832;SDS011;48891;49.220;6.920;2024-01-16T02:03:59;13.00;;;8.52;;
62832;SDS011;48891;49.220;6.920;2024-01-16T02:06:26;10.45;;;7.68;;
62832;SDS011;48891;49.220;6.920;2024-01-16T02:08:52;12.52;;;8.55;;
62832;SDS011;48891;49.220;6.920;2024-01-16T02:11:17;11.70;;;8.02;;
62832;SDS011;48891;49.220;6.920;2024-01-16T02:13:43;11.20;;;8.20;;
62832;SDS011;48891;49.220;6.920;2024-01-16T02:16:17;13.00;;;8.60;;
62832;SDS011;48891;49.220;6.920;2024-01-16T02:18:46;10.75;;;8.32;;
62832;SDS011;48891;49.220;6.920;2024-01-16T02:21:12;10.95;;;8.00;;
62832;SDS011;48891;49.220;6.920;2024-01-16T02:23:42;10.85;;;8.10;;
62832;SDS011;48891;49.220;6.920;2024-01-16T02:26:08;11.77;;;8.48;;
62832;SDS011;48891;49.220;6.920;2024-01-16T02:28:33;12.20;;;8.43;;
62832;SDS011;48891;49.220;6.920;2024-01-16T02:30:58;11.82;;;8.63;;
62832;SDS011;48891;49.220;6.920;2024-01-16T02:33:23;11.05;;;7.93;;
62832;SDS011;48891;49.220;6.920;2024-01-16T02:35:49;10.60;;;7.82;;
62832;SDS011;48891;49.220;6.920;2024-01-16T02:38:14;11.90;;;8.18;;
62832;SDS011;48891;49.220;6.920;2024-01-16T02:40:39;11.85;;;8.23;;
62832;SDS011;48891;49.220;6.920;2024-01-16T02:43:05;11.65;;;8.93;;
62832;SDS011;48891;49.220;6.920;2024-01-16T02:45:30;13.10;;;8.75;;
62832;SDS011;48891;49.220;6.920;2024-01-16T02:47:55;11.88;;;8.38;;
62832;SDS011;48891;49.220;6.920;2024-01-16T02:50:20;13.25;;;9.07;;
62832;SDS011;48891;49.220;6.920;2024-01-16T02:52:46;11.55;;;8.23;;
62832;SDS011;48891;49.220;6.920;2024-01-16T02:55:11;12.52;;;8.40;;
62832;SDS011;48891;49.220;6.920;2024-01-16T02:57:36;11.85;;;9.10;;
62832;SDS011;48891;49.220;6.920;2024-01-16T03:00:02;12.60;;;8.93;;
62832;SDS011;48891;49.220;6.920;2024-01-16T03:02:27;12.95;;;8.77;;
62832;SDS011;48891;49.220;6.920;2024-01-16T03:04:52;12.52;;;9.25;;
62832;SDS011;48891;49.220;6.920;2024-01-16T03:07:18;14.10;;;9.27;;
62832;SDS011;48891;49.220;6.920;2024-01-16T03:09:43;13.07;;;9.15;;
62832;SDS011;48891;49.220;6.920;2024-01-16T03:12:08;11.57;;;9.15;;
62832;SDS011;48891;49.220;6.920;2024-01-16T03:14:33;11.90;;;8.90;;
62832;SDS011;48891;49.220;6.920;2024-01-16T03:16:59;13.00;;;8.63;;
62832;SDS011;48891;49.220;6.920;2024-01-16T03:19:27;15.05;;;9.48;;
62832;SDS011;48891;49.220;6.920;2024-01-16T03:21:52;11.25;;;8.52;;
62832;SDS011;48891;49.220;6.920;2024-01-16T03:24:17;13.68;;;8.77;;
62832;SDS011;48891;49.220;6.920;2024-01-16T03:26:43;11.10;;;8.85;;
62832;SDS011;48891;49.220;6.920;2024-01-16T03:29:08;12.52;;;9.05;;
62832;SDS011;48891;49.220;6.920;2024-01-16T03:31:33;12.63;;;8.88;;
62832;SDS011;48891;49.220;6.920;2024-01-16T03:33:59;11.00;;;8.27;;
62832;SDS011;48891;49.220;6.920;2024-01-16T03:36:24;13.20;;;9.88;;
62832;SDS011;48891;49.220;6.920;2024-01-16T03:38:49;11.27;;;8.75;;
62832;SDS011;48891;49.220;6.920;2024-01-16T03:41:15;12.95;;;9.57;;
62832;SDS011;48891;49.220;6.920;2024-01-16T03:43:40;13.70;;;9.38;;
62832;SDS011;48891;49.220;6.920;2024-01-16T03:46:05;13.13;;;9.35;;
62832;SDS011;48891;49.220;6.920;2024-01-16T03:48:31;11.73;;;9.45;;
62832;SDS011;48891;49.220;6.920;2024-01-16T03:50:56;13.93;;;9.27;;
62832;SDS011;48891;49.220;6.920;2024-01-16T03:53:22;13.80;;;9.43;;
62832;SDS011;48891;49.220;6.920;2024-01-16T03:55:47;13.48;;;9.60;;
62832;SDS011;48891;49.220;6.920;2024-01-16T03:58:13;14.23;;;10.15;;
62832;SDS011;48891;49.220;6.920;2024-01-16T04:00:38;11.80;;;9.95;;
62832;SDS011;48891;49.220;6.920;2024-01-16T04:03:03;12.60;;;9.65;;
62832;SDS011;48891;49.220;6.920;2024-01-16T04:05:28;14.10;;;9.95;;
62832;SDS011;48891;49.220;6.920;2024-01-16T04:07:54;13.85;;;10.63;;
62832;SDS011;48891;49.220;6.920;2024-01-16T04:10:19;12.73;;;10.23;;
62832;SDS011;48891;49.220;6.920;2024-01-16T04:12:44;15.00;;;10.50;;
62832;SDS011;48891;49.220;6.920;2024-01-16T04:15:09;15.25;;;11.15;;
62832;SDS011;48891;49.220;6.920;2024-01-16T04:17:35;13.57;;;10.57;;
62832;SDS011;48891;49.220;6.920;2024-01-16T04:20:00;12.38;;;10.02;;
62832;SDS011;48891;49.220;6.920;2024-01-16T04:22:25;14.95;;;11.02;;
62832;SDS011;48891;49.220;6.920;2024-01-16T04:24:50;15.13;;;11.30;;
62832;SDS011;48891;49.220;6.920;2024-01-16T04:27:16;16.33;;;11.27;;
62832;SDS011;48891;49.220;6.920;2024-01-16T04:29:41;13.52;;;11.05;;
62832;SDS011;48891;49.220;6.920;2024-01-16T04:32:06;17.65;;;11.10;;
62832;SDS011;48891;49.220;6.920;2024-01-16T04:34:31;14.98;;;10.90;;
62832;SDS011;48891;49.220;6.920;2024-01-16T04:36:57;15.15;;;11.23;;
62832;SDS011;48891;49.220;6.920;2024-01-16T04:39:22;15.32;;;12.07;;
62832;SDS011;48891;49.220;6.920;2024-01-16T04:41:47;13.38;;;10.70;;
62832;SDS011;48891;49.220;6.920;2024-01-16T04:44:14;15.68;;;11.60;;
62832;SDS011;48891;49.220;6.920;2024-01-16T04:46:39;17.13;;;12.68;;
62832;SDS011;48891;49.220;6.920;2024-01-16T04:49:04;16.73;;;12.18;;
62832;SDS011;48891;49.220;6.920;2024-01-16T04:51:30;19.48;;;13.27;;
62832;SDS011;48891;49.220;6.920;2024-01-16T04:53:55;17.85;;;12.35;;
62832;SDS011;48891;49.220;6.920;2024-01-16T04:56:20;15.40;;;11.48;;
62832;SDS011;48891;49.220;6.920;2024-01-16T04:58:45;16.58;;;13.52;;
62832;SDS011;48891;49.220;6.920;2024-01-16T05:01:11;16.55;;;12.32;;
62832;SDS011;48891;49.220;6.920;2024-01-16T05:03:37;16.30;;;12.25;;
62832;SDS011;48891;49.220;6.920;2024-01-16T05:06:02;15.95;;;12.07;;
62832;SDS011;48891;49.220;6.920;2024-01-16T05:08:27;17.60;;;13.45;;
62832;SDS011;48891;49.220;6.920;2024-01-16T05:10:53;17.70;;;12.95;;
62832;SDS011;48891;49.220;6.920;2024-01-16T05:13:18;16.35;;;12.60;;
62832;SDS011;48891;49.220;6.920;2024-01-16T05:15:43;19.80;;;13.27;;
62832;SDS011;48891;49.220;6.920;2024-01-16T05:18:08;19.42;;;13.98;;
62832;SDS011;48891;49.220;6.920;2024-01-16T05:20:34;17.75;;;12.98;;
62832;SDS011;48891;49.220;6.920;2024-01-16T05:22:59;17.98;;;13.38;;
62832;SDS011;48891;49.220;6.920;2024-01-16T05:25:24;20.05;;;13.70;;
62832;SDS011;48891;49.220;6.920;2024-01-16T05:27:49;20.25;;;13.88;;
62832;SDS011;48891;49.220;6.920;2024-01-16T05:30:15;17.83;;;12.82;;
62832;SDS011;48891;49.220;6.920;2024-01-16T05:32:40;16.75;;;12.57;;
62832;SDS011;48891;49.220;6.920;2024-01-16T05:35:05;20.38;;;13.35;;
62832;SDS011;48891;49.220;6.920;2024-01-16T05:37:31;18.83;;;14.15;;
62832;SDS011;48891;49.220;6.920;2024-01-16T05:39:56;19.58;;;14.35;;
62832;SDS011;48891;49.220;6.920;2024-01-16T05:42:21;19.65;;;14.18;;
62832;SDS011;48891;49.220;6.920;2024-01-16T05:44:46;19.08;;;14.55;;
62832;SDS011;48891;49.220;6.920;2024-01-16T05:47:12;19.27;;;14.05;;
62832;SDS011;48891;49.220;6.920;2024-01-16T05:49:37;18.40;;;14.10;;
62832;SDS011;48891;49.220;6.920;2024-01-16T05:52:02;18.95;;;14.20;;
62832;SDS011;48891;49.220;6.920;2024-01-16T05:54:28;18.65;;;14.00;;
62832;SDS011;48891;49.220;6.920;2024-01-16T05:56:53;18.77;;;13.30;;
62832;SDS011;48891;49.220;6.920;2024-01-16T05:59:18;21.60;;;16.08;;
62832;SDS011;48891;49.220;6.920;2024-01-16T06:01:43;19.02;;;14.13;;
62832;SDS011;48891;49.220;6.920;2024-01-16T06:04:09;18.80;;;14.10;;
62832;SDS011;48891;49.220;6.920;2024-01-16T06:06:34;20.98;;;15.05;;
62832;SDS011;48891;49.220;6.920;2024-01-16T06:08:59;19.40;;;14.48;;
62832;SDS011;48891;49.220;6.920;2024-01-16T06:11:31;19.80;;;14.85;;
62832;SDS011;48891;49.220;6.920;2024-01-16T06:13:57;19.05;;;14.50;;
62832;SDS011;48891;49.220;6.920;2024-01-16T06:16:22;20.83;;;14.60;;
62832;SDS011;48891;49.220;6.920;2024-01-16T06:18:47;21.30;;;15.38;;
62832;SDS011;48891;49.220;6.920;2024-01-16T06:21:13;19.83;;;15.13;;
62832;SDS011;48891;49.220;6.920;2024-01-16T06:23:38;21.15;;;14.77;;
62832;SDS011;48891;49.220;6.920;2024-01-16T06:26:03;21.05;;;16.13;;
62832;SDS011;48891;49.220;6.920;2024-01-16T06:28:28;22.23;;;15.32;;
62832;SDS011;48891;49.220;6.920;2024-01-16T06:30:54;23.15;;;15.38;;
62832;SDS011;48891;49.220;6.920;2024-01-16T06:33:19;20.33;;;15.10;;
62832;SDS011;48891;49.220;6.920;2024-01-16T06:35:44;20.55;;;14.93;;
62832;SDS011;48891;49.220;6.920;2024-01-16T06:38:10;21.17;;;15.40;;
62832;SDS011;48891;49.220;6.920;2024-01-16T06:40:35;19.65;;;15.00;;
62832;SDS011;48891;49.220;6.920;2024-01-16T06:43:00;19.00;;;14.43;;
62832;SDS011;48891;49.220;6.920;2024-01-16T06:45:25;22.02;;;15.48;;
62832;SDS011;48891;49.220;6.920;2024-01-16T06:47:50;19.58;;;14.50;;
62832;SDS011;48891;49.220;6.920;2024-01-16T06:50:16;22.45;;;16.35;;
62832;SDS011;48891;49.220;6.920;2024-01-16T06:52:41;20.60;;;14.90;;
62832;SDS011;48891;49.220;6.920;2024-01-16T06:55:06;22.10;;;15.10;;
62832;SDS011;48891;49.220;6.920;2024-01-16T06:57:31;21.67;;;15.55;;
62832;SDS011;48891;49.220;6.920;2024-01-16T06:59:57;20.15;;;14.50;;
62832;SDS011;48891;49.220;6.920;2024-01-16T07:02:22;22.55;;;14.90;;
62832;SDS011;48891;49.220;6.920;2024-01-16T07:04:47;21.50;;;15.20;;
62832;SDS011;48891;49.220;6.920;2024-01-16T07:07:12;20.63;;;15.20;;
62832;SDS011;48891;49.220;6.920;2024-01-16T07:09:38;21.90;;;15.68;;
62832;SDS011;48891;49.220;6.920;2024-01-16T07:12:03;20.38;;;14.63;;
62832;SDS011;48891;49.220;6.920;2024-01-16T07:14:29;20.40;;;14.90;;
62832;SDS011;48891;49.220;6.920;2024-01-16T07:16:54;19.50;;;14.40;;
62832;SDS011;48891;49.220;6.920;2024-01-16T07:19:19;20.27;;;14.98;;
62832;SDS011;48891;49.220;6.920;2024-01-16T07:21:44;19.25;;;14.00;;
62832;SDS011;48891;49.220;6.920;2024-01-16T07:24:10;21.60;;;15.55;;
62832;SDS011;48891;49.220;6.920;2024-01-16T07:26:35;20.65;;;15.05;;
62832;SDS011;48891;49.220;6.920;2024-01-16T07:29:00;20.40;;;14.82;;
62832;SDS011;48891;49.220;6.920;2024-01-16T07:31:25;22.13;;;14.65;;
62832;SDS011;48891;49.220;6.920;2024-01-16T07:33:51;20.50;;;14.88;;
62832;SDS011;48891;49.220;6.920;2024-01-16T07:36:16;23.48;;;14.52;;
62832;SDS011;48891;49.220;6.920;2024-01-16T07:38:41;22.27;;;14.30;;
62832;SDS011;48891;49.220;6.920;2024-01-16T07:41:06;19.75;;;14.65;;
62832;SDS011;48891;49.220;6.920;2024-01-16T07:43:32;19.92;;;14.52;;
62832;SDS011;48891;49.220;6.920;2024-01-16T07:45:57;19.05;;;13.02;;
62832;SDS011;48891;49.220;6.920;2024-01-16T07:48:23;20.70;;;14.18;;
62832;SDS011;48891;49.220;6.920;2024-01-16T07:50:48;22.58;;;15.25;;
62832;SDS011;48891;49.220;6.920;2024-01-16T07:53:14;20.83;;;14.35;;
62832;SDS011;48891;49.220;6.920;2024-01-16T07:55:39;21.13;;;14.95;;
62832;SDS011;48891;49.220;6.920;2024-01-16T07:58:05;20.10;;;13.98;;
62832;SDS011;48891;49.220;6.920;2024-01-16T08:00:30;22.85;;;15.38;;
62832;SDS011;48891;49.220;6.920;2024-01-16T08:02:55;18.50;;;14.25;;
62832;SDS011;48891;49.220;6.920;2024-01-16T08:05:21;22.77;;;15.02;;
62832;SDS011;48891;49.220;6.920;2024-01-16T08:07:46;19.95;;;14.13;;
62832;SDS011;48891;49.220;6.920;2024-01-16T08:10:11;22.38;;;14.57;;
62832;SDS011;48891;49.220;6.920;2024-01-16T08:12:36;22.52;;;15.55;;
62832;SDS011;48891;49.220;6.920;2024-01-16T08:15:02;17.02;;;13.20;;
62832;SDS011;48891;49.220;6.920;2024-01-16T08:17:27;19.00;;;13.65;;
62832;SDS011;48891;49.220;6.920;2024-01-16T08:19:52;20.02;;;14.20;;
62832;SDS011;48891;49.220;6.920;2024-01-16T08:22:17;19.83;;;14.13;;
62832;SDS011;48891;49.220;6.920;2024-01-16T08:24:43;22.73;;;14.35;;
62832;SDS011;48891;49.220;6.920;2024-01-16T08:27:08;18.60;;;13.52;;
62832;SDS011;48891;49.220;6.920;2024-01-16T08:29:33;18.10;;;13.50;;
62832;SDS011;48891;49.220;6.920;2024-01-16T08:31:58;19.42;;;14.02;;
62832;SDS011;48891;49.220;6.920;2024-01-16T08:34:24;18.98;;;13.80;;
62832;SDS011;48891;49.220;6.920;2024-01-16T08:36:49;19.27;;;13.98;;
62832;SDS011;48891;49.220;6.920;2024-01-16T08:39:14;18.98;;;14.27;;
62832;SDS011;48891;49.220;6.920;2024-01-16T08:41:39;20.50;;;14.30;;
62832;SDS011;48891;49.220;6.920;2024-01-16T08:44:04;18.52;;;13.30;;
62832;SDS011;48891;49.220;6.920;2024-01-16T08:46:30;19.95;;;13.57;;
62832;SDS011;48891;49.220;6.920;2024-01-16T08:48:55;20.98;;;14.70;;
62832;SDS011;48891;49.220;6.920;2024-01-16T08:51:20;19.55;;;13.90;;
62832;SDS011;48891;49.220;6.920;2024-01-16T08:53:46;18.33;;;14.02;;
62832;SDS011;48891;49.220;6.920;2024-01-16T08:56:11;18.50;;;14.02;;
62832;SDS011;48891;49.220;6.920;2024-01-16T08:58:37;18.80;;;13.48;;
62832;SDS011;48891;49.220;6.920;2024-01-16T09:01:03;21.17;;;13.10;;
62832;SDS011;48891;49.220;6.920;2024-01-16T09:03:29;19.67;;;13.63;;
62832;SDS011;48891;49.220;6.920;2024-01-16T09:05:54;18.98;;;13.02;;
62832;SDS011;48891;49.220;6.920;2024-01-16T09:08:19;18.65;;;13.65;;
62832;SDS011;48891;49.220;6.920;2024-01-16T09:10:44;20.30;;;14.60;;
62832;SDS011;48891;49.220;6.920;2024-01-16T09:13:10;18.73;;;13.60;;
62832;SDS011;48891;49.220;6.920;2024-01-16T09:15:35;17.13;;;12.68;;
62832;SDS011;48891;49.220;6.920;2024-01-16T09:18:00;18.10;;;12.88;;
62832;SDS011;48891;49.220;6.920;2024-01-16T09:20:26;19.55;;;13.30;;
62832;SDS011;48891;49.220;6.920;2024-01-16T09:22:51;17.90;;;13.02;;
62832;SDS011;48891;49.220;6.920;2024-01-16T09:25:16;19.90;;;13.65;;
62832;SDS011;48891;49.220;6.920;2024-01-16T09:27:41;18.80;;;12.68;;
62832;SDS011;48891;49.220;6.920;2024-01-16T09:30:07;17.15;;;12.75;;
62832;SDS011;48891;49.220;6.920;2024-01-16T09:32:32;18.33;;;13.20;;
62832;SDS011;48891;49.220;6.920;2024-01-16T09:34:58;15.50;;;11.93;;
62832;SDS011;48891;49.220;6.920;2024-01-16T09:37:23;16.05;;;12.98;;
62832;SDS011;48891;49.220;6.920;2024-01-16T09:39:48;19.73;;;13.02;;
62832;SDS011;48891;49.220;6.920;2024-01-16T09:42:13;19.42;;;12.77;;
62832;SDS011;48891;49.220;6.920;2024-01-16T09:44:39;18.45;;;12.80;;
62832;SDS011;48891;49.220;6.920;2024-01-16T09:47:04;17.50;;;12.10;;
62832;SDS011;48891;49.220;6.920;2024-01-16T09:49:33;17.63;;;12.82;;
62832;SDS011;48891;49.220;6.920;2024-01-16T09:51:58;15.57;;;12.15;;
62832;SDS011;48891;49.220;6.920;2024-01-16T09:54:23;17.75;;;12.70;;
62832;SDS011;48891;49.220;6.920;2024-01-16T09:56:51;17.55;;;12.70;;
62832;SDS011;48891;49.220;6.920;2024-01-16T09:59:18;16.40;;;12.23;;
62832;SDS011;48891;49.220;6.920;2024-01-16T10:01:45;17.75;;;12.38;;
62832;SDS011;48891;49.220;6.920;2024-01-16T10:04:11;18.50;;;12.10;;
62832;SDS011;48891;49.220;6.920;2024-01-16T10:06:37;17.95;;;13.00;;
62832;SDS011;48891;49.220;6.920;2024-01-16T10:09:03;17.77;;;12.23;;
62832;SDS011;48891;49.220;6.920;2024-01-16T10:11:28;16.60;;;11.57;;
62832;SDS011;48891;49.220;6.920;2024-01-16T10:13:54;16.77;;;11.68;;
62832;SDS011;48891;49.220;6.920;2024-01-16T10:16:20;17.85;;;12.40;;
62832;SDS011;48891;49.220;6.920;2024-01-16T10:18:45;18.15;;;12.35;;
62832;SDS011;48891;49.220;6.920;2024-01-16T10:21:19;17.02;;;12.15;;
62832;SDS011;48891;49.220;6.920;2024-01-16T10:23:46;17.45;;;12.43;;
62832;SDS011;48891;49.220;6.920;2024-01-16T10:26:11;17.92;;;11.98;;
62832;SDS011;48891;49.220;6.920;2024-01-16T10:28:38;17.77;;;12.05;;
62832;SDS011;48891;49.220;6.920;2024-01-16T10:31:05;17.10;;;12.80;;
62832;SDS011;48891;49.220;6.920;2024-01-16T10:33:32;16.70;;;12.27;;
62832;SDS011;48891;49.220;6.920;2024-01-16T10:36:16;17.00;;;12.07;;
62832;SDS011;48891;49.220;6.920;2024-01-16T10:38:42;16.40;;;12.02;;
62832;SDS011;48891;49.220;6.920;2024-01-16T10:41:12;16.70;;;13.00;;
62832;SDS011;48891;49.220;6.920;2024-01-16T10:43:39;17.05;;;12.32;;
62832;SDS011;48891;49.220;6.920;2024-01-16T10:48:37;16.45;;;11.60;;
62832;SDS011;48891;49.220;6.920;2024-01-16T10:51:05;18.77;;;12.05;;
62832;SDS011;48891;49.220;6.920;2024-01-16T10:53:32;17.20;;;12.05;;
62832;SDS011;48891;49.220;6.920;2024-01-16T10:56:02;19.35;;;12.65;;
62832;SDS011;48891;49.220;6.920;2024-01-16T10:58:30;16.00;;;12.13;;
62832;SDS011;48891;49.220;6.920;2024-01-16T11:00:56;17.90;;;11.95;;
62832;SDS011;48891;49.220;6.920;2024-01-16T11:05:57;16.13;;;12.07;;
62832;SDS011;48891;49.220;6.920;2024-01-16T11:08:23;18.60;;;12.98;;
62832;SDS011;48891;49.220;6.920;2024-01-16T11:10:48;17.83;;;12.90;;
62832;SDS011;48891;49.220;6.920;2024-01-16T11:13:14;17.77;;;11.88;;
62832;SDS011;48891;49.220;6.920;2024-01-16T11:15:41;18.83;;;12.65;;
62832;SDS011;48891;49.220;6.920;2024-01-16T11:18:07;17.08;;;12.57;;
62832;SDS011;48891;49.220;6.920;2024-01-16T11:20:33;16.67;;;12.75;;
62832;SDS011;48891;49.220;6.920;2024-01-16T11:23:00;17.55;;;12.73;;
62832;SDS011;48891;49.220;6.920;2024-01-16T11:25:32;16.30;;;12.13;;
62832;SDS011;48891;49.220;6.920;2024-01-16T11:28:11;18.00;;;12.45;;
62832;SDS011;48891;49.220;6.920;2024-01-16T11:30:37;18.88;;;12.98;;
62832;SDS011;48891;49.220;6.920;2024-01-16T11:33:03;17.15;;;12.73;;
62832;SDS011;48891;49.220;6.920;2024-01-16T11:35:35;16.25;;;12.30;;
62832;SDS011;48891;49.220;6.920;2024-01-16T11:38:06;18.38;;;13.18;;
62832;SDS011;48891;49.220;6.920;2024-01-16T11:40:33;17.30;;;12.57;;
62832;SDS011;48891;49.220;6.920;2024-01-16T11:42:59;21.35;;;13.82;;
62832;SDS011;48891;49.220;6.920;2024-01-16T11:46:00;19.88;;;13.77;;
62832;SDS011;48891;49.220;6.920;2024-01-16T11:48:26;19.50;;;13.48;;
62832;SDS011;48891;49.220;6.920;2024-01-16T11:50:52;19.85;;;14.38;;
62832;SDS011;48891;49.220;6.920;2024-01-16T11:53:31;19.48;;;13.88;;
62832;SDS011;48891;49.220;6.920;2024-01-16T11:56:07;19.73;;;14.35;;
62832;SDS011;48891;49.220;6.920;2024-01-16T11:58:48;18.75;;;14.95;;
62832;SDS011;48891;49.220;6.920;2024-01-16T12:01:35;20.40;;;15.18;;
62832;SDS011;48891;49.220;6.920;2024-01-16T12:04:04;20.02;;;14.57;;
62832;SDS011;48891;49.220;6.920;2024-01-16T12:06:30;22.80;;;15.48;;
62832;SDS011;48891;49.220;6.920;2024-01-16T12:09:16;19.17;;;14.30;;
62832;SDS011;48891;49.220;6.920;2024-01-16T12:11:42;20.77;;;15.20;;
62832;SDS011;48891;49.220;6.920;2024-01-16T12:14:07;21.60;;;15.65;;
62832;SDS011;48891;49.220;6.920;2024-01-16T12:16:32;20.58;;;15.45;;
62832;SDS011;48891;49.220;6.920;2024-01-16T12:19:07;18.98;;;14.50;;
62832;SDS011;48891;49.220;6.920;2024-01-16T12:21:43;21.13;;;15.90;;
62832;SDS011;48891;49.220;6.920;2024-01-16T12:24:10;19.45;;;15.73;;
62832;SDS011;48891;49.220;6.920;2024-01-16T12:26:35;21.05;;;15.95;;
62832;SDS011;48891;49.220;6.920;2024-01-16T12:29:01;20.35;;;15.80;;
62832;SDS011;48891;49.220;6.920;2024-01-16T12:31:27;21.23;;;16.00;;
62832;SDS011;48891;49.220;6.920;2024-01-16T12:33:52;22.42;;;16.25;;
62832;SDS011;48891;49.220;6.920;2024-01-16T12:36:18;22.38;;;16.45;;
62832;SDS011;48891;49.220;6.920;2024-01-16T12:38:43;21.20;;;16.48;;
62832;SDS011;48891;49.220;6.920;2024-01-16T12:41:09;22.85;;;17.60;;
62832;SDS011;48891;49.220;6.920;2024-01-16T12:43:36;22.35;;;17.05;;
62832;SDS011;48891;49.220;6.920;2024-01-16T12:46:02;23.30;;;17.70;;
62832;SDS011;48891;49.220;6.920;2024-01-16T12:48:28;25.05;;;18.02;;
62832;SDS011;48891;49.220;6.920;2024-01-16T12:51:03;26.02;;;18.92;;
62832;SDS011;48891;49.220;6.920;2024-01-16T12:53:29;25.15;;;17.40;;
62832;SDS011;48891;49.220;6.920;2024-01-16T12:55:58;23.48;;;16.65;;
62832;SDS011;48891;49.220;6.920;2024-01-16T12:58:24;27.95;;;19.40;;
62832;SDS011;48891;49.220;6.920;2024-01-16T13:00:50;26.88;;;19.95;;
62832;SDS011;48891;49.220;6.920;2024-01-16T13:03:23;24.48;;;18.85;;
62832;SDS011;48891;49.220;6.920;2024-01-16T13:05:56;25.77;;;19.40;;
62832;SDS011;48891;49.220;6.920;2024-01-16T13:08:23;25.55;;;18.75;;
62832;SDS011;48891;49.220;6.920;2024-01-16T13:11:01;27.20;;;19.75;;
62832;SDS011;48891;49.220;6.920;2024-01-16T13:13:33;27.17;;;19.55;;
62832;SDS011;48891;49.220;6.920;2024-01-16T13:15:59;27.45;;;19.38;;
62832;SDS011;48891;49.220;6.920;2024-01-16T13:18:27;25.73;;;19.23;;
62832;SDS011;48891;49.220;6.920;2024-01-16T13:20:54;26.10;;;18.88;;
62832;SDS011;48891;49.220;6.920;2024-01-16T13:23:20;25.35;;;18.95;;
62832;SDS011;48891;49.220;6.920;2024-01-16T13:25:47;25.80;;;18.90;;
62832;SDS011;48891;49.220;6.920;2024-01-16T13:28:13;26.60;;;18.95;;
62832;SDS011;48891;49.220;6.920;2024-01-16T13:30:41;25.10;;;19.38;;
62832;SDS011;48891;49.220;6.920;2024-01-16T13:33:11;26.88;;;19.42;;
62832;SDS011;48891;49.220;6.920;2024-01-16T13:35:43;28.20;;;19.35;;
62832;SDS011;48891;49.220;6.920;2024-01-16T13:38:11;27.52;;;19.13;;
62832;SDS011;48891;49.220;6.920;2024-01-16T13:40:37;26.65;;;19.85;;
62832;SDS011;48891;49.220;6.920;2024-01-16T13:43:02;26.95;;;19.95;;
62832;SDS011;48891;49.220;6.920;2024-01-16T13:45:28;26.02;;;19.23;;
62832;SDS011;48891;49.220;6.920;2024-01-16T13:47:54;24.70;;;17.67;;
62832;SDS011;48891;49.220;6.920;2024-01-16T13:50:20;25.23;;;19.35;;
62832;SDS011;48891;49.220;6.920;2024-01-16T13:52:45;26.95;;;18.27;;
62832;SDS011;48891;49.220;6.920;2024-01-16T13:55:10;25.52;;;19.58;;
62832;SDS011;48891;49.220;6.920;2024-01-16T13:57:36;26.77;;;19.38;;
62832;SDS011;48891;49.220;6.920;2024-01-16T14:00:02;24.98;;;19.38;;
62832;SDS011;48891;49.220;6.920;2024-01-16T14:02:28;26.40;;;19.63;;
62832;SDS011;48891;49.220;6.920;2024-01-16T14:04:53;25.95;;;19.50;;
62832;SDS011;48891;49.220;6.920;2024-01-16T14:07:18;28.95;;;20.83;;
62832;SDS011;48891;49.220;6.920;2024-01-16T14:09:44;26.95;;;19.88;;
62832;SDS011;48891;49.220;6.920;2024-01-16T14:12:09;27.52;;;20.40;;
62832;SDS011;48891;49.220;6.920;2024-01-16T14:14:34;28.13;;;21.50;;
62832;SDS011;48891;49.220;6.920;2024-01-16T14:17:00;26.33;;;19.83;;
62832;SDS011;48891;49.220;6.920;2024-01-16T14:19:28;26.55;;;20.48;;
62832;SDS011;48891;49.220;6.920;2024-01-16T14:21:53;28.42;;;21.25;;
62832;SDS011;48891;49.220;6.920;2024-01-16T14:24:19;28.25;;;20.10;;